Terminal Aerodrome Forecast
Issued by NWS

Home | Current Version | Previous Version | Graphics & Text | Print | Product List | Glossary On
Versions: 1 2 3 4 5 6 7 8 9 10 11 12 13
000
FTUS43 KICT 171700
TAFCNU
TAF
KCNU 171726Z 1718/1818 01012KT P6SM SCT080 OVC150
      TEMPO 1719/1723 6SM -RA OVC040
     FM172300 04005KT P6SM BKN090=

USA.gov is the U.S. government's official web portal to all federal, state and local government web resources and services.